Time;durP1;ratioP1;P1;durP2;ratioP2;P2;SDS_P1;SDS_P2;PMS_P1;PMS_P2;Temp;Humidity;BMP_temperature;BMP_pressure;BME280_temperature;BME280_humidity;BME280_pressure;Samples;Min_cycle;Max_cycle;Signal;HPM_P1;HPM_P2
2021/09/12 00:01:56;;;;;;;5.53;4.35;;;;;;;15.95;67.35;96667.94;1675945;84;21000;-84
2021/09/12 00:04:22;;;;;;;6.10;4.58;;;;;;;15.96;67.88;96663.79;1676685;84;21358;-84
2021/09/12 00:06:48;;;;;;;5.50;5.00;;;;;;;15.99;68.12;96667.30;1690936;84;21015;-84
2021/09/12 00:09:15;;;;;;;5.78;4.83;;;;;;;16.01;68.43;96667.09;1679937;84;21061;-84
2021/09/12 00:11:40;;;;;;;7.10;4.90;;;;;;;16.02;68.60;96672.12;1635688;86;21077;-84
2021/09/12 00:14:06;;;;;;;5.25;4.75;;;;;;;16.02;69.21;96668.70;1671735;85;21060;-84
2021/09/12 00:16:32;;;;;;;5.80;5.12;;;;;;;16.05;69.35;96671.70;1676280;84;21470;-84
2021/09/12 00:18:58;;;;;;;6.28;5.22;;;;;;;16.08;69.70;96666.03;1642229;85;21127;-84
2021/09/12 00:21:25;;;;;;;7.78;5.65;;;;;;;16.11;70.25;96668.26;1673997;84;21063;-84
2021/09/12 00:23:50;;;;;;;6.92;6.22;;;;;;;16.14;70.24;96673.59;1649043;85;21475;-84
2021/09/12 00:26:16;;;;;;;8.58;5.80;;;;;;;16.17;70.71;96675.27;1703357;83;21106;-83
2021/09/12 00:28:42;;;;;;;8.18;5.92;;;;;;;16.19;70.49;96670.63;1675070;84;21071;-84
2021/09/12 00:31:08;;;;;;;6.00;5.40;;;;;;;16.22;70.68;96669.39;1692060;84;21131;-84
2021/09/12 00:33:33;;;;;;;6.05;5.45;;;;;;;16.28;70.79;96670.39;1682599;84;21482;-84
2021/09/12 00:35:59;;;;;;;7.03;5.67;;;;;;;16.32;70.96;96672.88;1685319;84;21070;-84
2021/09/12 00:38:25;;;;;;;6.37;5.78;;;;;;;16.35;70.96;96668.02;1702188;83;21047;-84
2021/09/12 00:40:51;;;;;;;8.73;5.87;;;;;;;16.38;71.27;96674.14;1702019;83;20994;-84
2021/09/12 00:43:17;;;;;;;6.78;6.08;;;;;;;16.39;71.38;96674.95;1644666;85;21028;-83
2021/09/12 00:45:43;;;;;;;7.95;6.55;;;;;;;16.39;71.52;96673.64;1665184;84;21106;-84
2021/09/12 00:48:09;;;;;;;7.78;6.30;;;;;;;16.38;71.59;96675.45;1693122;83;20973;-84
2021/09/12 00:50:36;;;;;;;6.85;5.60;;;;;;;16.38;71.82;96676.77;1701723;83;20985;-84
2021/09/12 00:53:02;;;;;;;10.82;5.92;;;;;;;16.42;71.86;96670.59;1652322;85;21008;-84
2021/09/12 00:55:29;;;;;;;7.05;6.28;;;;;;;16.41;71.88;96667.67;1692273;84;21676;-84
2021/09/12 00:57:54;;;;;;;6.78;5.97;;;;;;;16.42;71.93;96662.21;1684468;84;21031;-84
2021/09/12 01:00:20;;;;;;;9.00;7.00;;;;;;;16.42;72.16;96662.21;1698682;84;20984;-84
2021/09/12 01:02:46;;;;;;;7.72;6.92;;;;;;;16.40;72.29;96660.31;1699534;83;21021;-84
2021/09/12 01:05:12;;;;;;;7.70;6.25;;;;;;;16.37;72.38;96662.56;1682048;84;21114;-84
2021/09/12 01:07:40;;;;;;;10.30;6.60;;;;;;;16.37;72.59;96663.87;1685264;84;21028;-83
2021/09/12 01:10:10;;;;;;;6.90;6.17;;;;;;;16.36;72.59;96660.44;1697369;84;21098;-83
2021/09/12 01:12:36;;;;;;;8.78;6.75;;;;;;;16.35;73.26;96660.66;1667239;84;21041;-84
2021/09/12 01:15:02;;;;;;;8.85;6.97;;;;;;;16.32;73.25;96665.82;1691127;83;21007;-84
2021/09/12 01:17:28;;;;;;;9.28;7.92;;;;;;;16.30;73.24;96668.36;1708154;83;21056;-83
2021/09/12 01:19:55;;;;;;;8.70;7.45;;;;;;;16.29;73.74;96667.56;1708921;83;20987;-84
2021/09/12 01:22:20;;;;;;;8.85;6.95;;;;;;;16.25;73.96;96657.17;1696948;83;21416;-84
2021/09/12 01:24:46;;;;;;;7.90;7.05;;;;;;;16.24;74.26;96660.81;1700802;84;21058;-83
2021/09/12 01:27:12;;;;;;;7.70;7.00;;;;;;;16.25;74.31;96659.80;1708271;83;21035;-83
2021/09/12 01:29:39;;;;;;;9.35;7.25;;;;;;;16.26;74.29;96661.40;1663422;83;21022;-84
2021/09/12 01:32:06;;;;;;;7.78;7.05;;;;;;;16.26;74.35;96658.78;1683038;83;21015;-84
2021/09/12 01:34:32;;;;;;;7.92;7.12;;;;;;;16.24;74.57;96654.77;1692618;84;21395;-84
2021/09/12 01:36:57;;;;;;;8.00;7.05;;;;;;;16.19;74.68;96654.89;1708567;83;21092;-84
2021/09/12 01:39:23;;;;;;;7.97;7.17;;;;;;;16.17;74.94;96650.88;1700795;83;21026;-84
2021/09/12 01:41:49;;;;;;;7.28;6.50;;;;;;;16.15;74.97;96653.71;1687024;84;21051;-84
2021/09/12 01:44:15;;;;;;;10.38;7.12;;;;;;;16.15;75.02;96651.59;1700658;83;21394;-84
2021/09/12 01:46:46;;;;;;;9.60;7.67;;;;;;;16.14;75.02;96657.35;1691213;83;21035;-84
2021/09/12 01:49:08;;;;;;;10.38;7.10;;;;;;;16.11;74.98;96656.47;1721936;83;21020;-84
2021/09/12 01:51:34;;;;;;;8.53;6.53;;;;;;;16.09;74.90;96661.08;1724683;82;20993;-84
2021/09/12 01:53:59;;;;;;;9.98;6.90;;;;;;;16.07;74.97;96663.11;1689965;84;21025;-84
2021/09/12 01:56:25;;;;;;;6.80;6.12;;;;;;;16.04;75.11;96662.23;1674942;85;21061;-84
2021/09/12 01:58:51;;;;;;;7.30;6.60;;;;;;;16.02;75.13;96660.33;1679055;84;21099;-84
2021/09/12 02:01:17;;;;;;;8.98;6.65;;;;;;;16.01;75.15;96663.16;1685135;84;21047;-84
2021/09/12 02:03:42;;;;;;;8.90;6.65;;;;;;;15.98;75.17;96657.83;1678542;84;21367;-84
2021/09/12 02:06:08;;;;;;;7.95;6.92;;;;;;;15.98;75.21;96658.34;1640601;85;20973;-84
2021/09/12 02:08:34;;;;;;;8.93;7.28;;;;;;;15.96;75.06;96666.92;1682597;84;21119;-83
2021/09/12 02:11:00;;;;;;;6.78;5.90;;;;;;;15.94;75.15;96664.48;1702871;84;21497;-83
2021/09/12 02:13:25;;;;;;;7.58;5.85;;;;;;;15.90;75.11;96665.91;1682522;84;20987;-84
2021/09/12 02:15:51;;;;;;;7.03;5.70;;;;;;;15.92;75.08;96669.13;1663115;84;21075;-84
2021/09/12 02:18:17;;;;;;;7.33;5.78;;;;;;;15.93;75.13;96671.23;1668440;84;21040;-84
2021/09/12 02:20:44;;;;;;;7.10;5.95;;;;;;;15.94;75.41;96668.41;1688347;84;21027;-83
2021/09/12 02:23:15;;;;;;;7.33;6.25;;;;;;;15.91;75.31;96667.02;1691276;84;21035;-84
2021/09/12 02:25:40;;;;;;;7.60;6.20;;;;;;;15.89;75.28;96668.23;1675908;84;21020;-83
2021/09/12 02:28:06;;;;;;;8.00;5.33;;;;;;;15.87;75.41;96666.33;1642614;85;20996;-84
2021/09/12 02:30:32;;;;;;;9.08;6.00;;;;;;;15.86;75.26;96661.59;1677253;83;21055;-83
2021/09/12 02:33:02;;;;;;;6.60;5.83;;;;;;;15.85;75.41;96660.00;1662757;84;21024;-84
2021/09/12 02:35:33;;;;;;;8.25;5.90;;;;;;;15.85;75.09;96657.88;1715829;83;21071;-84
2021/09/12 02:37:58;;;;;;;11.28;6.67;;;;;;;15.82;75.19;96666.97;1673504;84;21006;-84
2021/09/12 02:40:34;;;;;;;9.30;6.33;;;;;;;15.78;75.10;96659.23;1675988;85;21032;-83
2021/09/12 02:43:07;;;;;;;8.53;5.53;;;;;;;15.76;75.01;96660.42;1699113;83;21118;-83
2021/09/12 02:45:32;;;;;;;7.40;5.20;;;;;;;15.72;74.86;96650.87;1696741;83;21100;-83
2021/09/12 02:48:00;;;;;;;6.47;5.72;;;;;;;15.71;74.81;96659.74;1668431;84;21053;-84
2021/09/12 02:50:26;;;;;;;6.67;5.65;;;;;;;15.71;74.75;96662.36;1679817;84;21363;-84
2021/09/12 02:52:52;;;;;;;6.42;5.65;;;;;;;15.70;74.87;96663.88;1674434;84;21036;-84
2021/09/12 02:55:23;;;;;;;6.67;5.58;;;;;;;15.68;74.92;96663.28;1673017;84;21055;-84
2021/09/12 02:58:01;;;;;;;5.87;5.30;;;;;;;15.61;75.05;96654.92;1681860;85;21091;-84
2021/09/12 03:00:24;;;;;;;5.83;4.30;;;;;;;15.60;75.07;96655.13;1697386;83;21026;-84
2021/09/12 03:02:50;;;;;;;6.55;5.15;;;;;;;15.59;75.07;96659.56;1674301;84;21435;-84
2021/09/12 03:05:16;;;;;;;5.90;4.90;;;;;;;15.58;75.43;96660.55;1652936;85;21044;-84
2021/09/12 03:07:51;;;;;;;6.80;5.95;;;;;;;15.58;75.53;96654.00;1655130;84;21066;-83
2021/09/12 03:10:20;;;;;;;6.20;5.25;;;;;;;15.55;75.48;96660.97;1690486;84;21087;-84
2021/09/12 03:12:45;;;;;;;7.03;5.08;;;;;;;15.53;75.64;96658.26;1673894;84;21454;-84
2021/09/12 03:15:12;;;;;;;4.80;4.30;;;;;;;15.51;75.69;96657.16;1678134;84;20982;-84
2021/09/12 03:17:37;;;;;;;5.20;4.70;;;;;;;15.50;75.90;96652.12;1684811;84;21020;-83
2021/09/12 03:20:04;;;;;;;6.03;5.25;;;;;;;15.50;75.87;96662.09;1682796;84;21425;-84
2021/09/12 03:22:30;;;;;;;5.97;5.37;;;;;;;15.50;76.15;96656.86;1684808;84;22102;-84
2021/09/12 03:24:56;;;;;;;7.87;6.10;;;;;;;15.48;76.10;96652.34;1680924;84;21054;-84
2021/09/12 03:27:21;;;;;;;9.18;5.08;;;;;;;15.45;76.12;96654.53;1675047;84;20991;-85
2021/09/12 03:29:47;;;;;;;6.33;4.60;;;;;;;15.42;76.19;96653.64;1689206;84;21444;-83
2021/09/12 03:32:13;;;;;;;5.92;4.30;;;;;;;15.40;76.22;96653.85;1687899;84;21023;-84
2021/09/12 03:34:39;;;;;;;5.00;4.50;;;;;;;15.40;76.29;96653.05;1650066;85;21071;-83
2021/09/12 03:37:06;;;;;;;5.83;5.22;;;;;;;15.38;76.40;96646.71;1661873;84;21008;-85
2021/09/12 03:39:32;;;;;;;7.87;5.67;;;;;;;15.39;76.37;96647.52;1687206;84;21045;-83
2021/09/12 03:42:03;;;;;;;6.17;5.58;;;;;;;15.37;76.52;96649.53;1669730;84;21098;-83
2021/09/12 03:44:28;;;;;;;6.08;4.87;;;;;;;15.34;76.63;96648.14;1657360;85;21025;-84
2021/09/12 03:46:54;;;;;;;6.22;4.83;;;;;;;15.32;76.62;96646.23;1668872;85;21032;-84
2021/09/12 03:49:24;;;;;;;5.08;4.40;;;;;;;15.31;76.70;96648.05;1676794;84;21112;-84
2021/09/12 03:51:50;;;;;;;5.78;5.17;;;;;;;15.30;76.75;96644.33;1683206;84;21011;-83
2021/09/12 03:54:20;;;;;;;5.45;4.95;;;;;;;15.31;76.64;96648.55;1689909;84;21091;-84
2021/09/12 03:56:46;;;;;;;6.22;5.00;;;;;;;15.28;76.80;96643.20;1693024;84;21436;-84
2021/09/12 03:59:11;;;;;;;6.58;4.92;;;;;;;15.27;77.07;96643.41;1704265;83;21059;-83
2021/09/12 04:01:37;;;;;;;5.60;4.40;;;;;;;15.24;77.24;96644.62;1700562;84;21003;-84
2021/09/12 04:04:03;;;;;;;6.33;5.00;;;;;;;15.24;77.33;96643.81;1685721;84;21097;-84
2021/09/12 04:06:31;;;;;;;5.97;4.50;;;;;;;15.24;77.42;96639.89;1697605;84;21045;-84
2021/09/12 04:08:59;;;;;;;6.75;4.72;;;;;;;15.24;77.57;96638.08;1652022;85;21090;-84
2021/09/12 04:11:29;;;;;;;6.12;5.08;;;;;;;15.25;77.68;96642.30;1681650;84;21058;-84
2021/09/12 04:14:00;;;;;;;6.78;4.62;;;;;;;15.26;77.83;96645.22;1687483;84;20992;-83
2021/09/12 04:16:31;;;;;;;4.25;3.80;;;;;;;15.24;78.00;96640.70;1677571;84;21049;-84
2021/09/12 04:18:56;;;;;;;4.47;4.08;;;;;;;15.22;78.17;96636.67;1684556;84;21383;-83
2021/09/12 04:21:22;;;;;;;4.12;3.72;;;;;;;15.23;78.18;96635.66;1677531;84;21036;-83
2021/09/12 04:23:51;;;;;;;8.50;4.20;;;;;;;15.25;78.22;96634.95;1669548;84;21004;-83
2021/09/12 04:26:19;;;;;;;5.10;4.60;;;;;;;15.28;78.20;96636.66;1679551;84;21027;-83
2021/09/12 04:28:48;;;;;;;5.37;4.35;;;;;;;15.31;78.11;96643.31;1687893;84;21079;-83
2021/09/12 04:31:17;;;;;;;5.65;5.15;;;;;;;15.34;78.37;96646.83;1702817;83;21019;-83
2021/09/12 04:33:50;;;;;;;4.97;4.50;;;;;;;15.34;78.53;96641.59;1684740;83;21006;-83
2021/09/12 04:36:15;;;;;;;6.78;5.03;;;;;;;15.36;78.56;96640.88;1698225;83;21047;-84
2021/09/12 04:38:45;;;;;;;4.58;4.08;;;;;;;15.38;78.51;96643.29;1697745;83;21099;-84
2021/09/12 04:41:17;;;;;;;5.12;4.00;;;;;;;15.41;78.43;96642.88;1680485;83;21050;-83
2021/09/12 04:43:47;;;;;;;5.10;4.53;;;;;;;15.47;78.67;96646.00;1685829;83;21078;-83
2021/09/12 04:46:16;;;;;;;6.55;4.70;;;;;;;15.50;78.67;96649.00;1667824;84;21365;-84
2021/09/12 04:48:41;;;;;;;6.37;5.10;;;;;;;15.54;78.74;96647.58;1690262;84;21051;-83
2021/09/12 04:51:09;;;;;;;6.00;4.17;;;;;;;15.57;78.83;96650.28;1696073;84;21020;-83
2021/09/12 04:53:35;;;;;;;4.25;3.60;;;;;;;15.63;78.89;96653.94;1705195;83;21043;-83
2021/09/12 04:56:05;;;;;;;4.95;4.47;;;;;;;15.69;78.87;96651.80;1695189;84;21123;-84
2021/09/12 04:58:37;;;;;;;4.20;3.80;;;;;;;15.74;78.85;96651.97;1672235;84;21127;-83
2021/09/12 05:01:08;;;;;;;5.72;4.37;;;;;;;15.83;78.74;96659.91;1640002;84;21036;-84
2021/09/12 05:03:43;;;;;;;6.20;4.40;;;;;;;15.89;78.67;96652.52;1680521;84;21012;-84
2021/09/12 05:06:08;;;;;;;5.12;4.62;;;;;;;15.94;78.92;96655.30;1665449;84;21044;-84
2021/09/12 05:08:38;;;;;;;5.20;4.70;;;;;;;15.96;79.04;96662.48;1686861;84;21061;-83
2021/09/12 05:11:05;;;;;;;4.47;3.77;;;;;;;15.97;79.11;96656.23;1655883;84;21040;-84
2021/09/12 05:13:38;;;;;;;4.45;3.85;;;;;;;16.00;79.35;96653.18;1657403;84;21091;-84
2021/09/12 05:16:04;;;;;;;6.28;3.98;;;;;;;16.05;79.25;96656.48;1688715;84;21316;-84
2021/09/12 05:18:30;;;;;;;6.37;3.77;;;;;;;16.13;79.19;96657.05;1683585;84;21410;-83
2021/09/12 05:20:56;;;;;;;4.80;4.00;;;;;;;16.20;79.34;96661.74;1665177;84;22507;-84
2021/09/12 05:23:22;;;;;;;4.53;4.12;;;;;;;16.27;79.40;96662.20;1656938;85;21377;-84
2021/09/12 05:25:50;;;;;;;5.47;3.87;;;;;;;16.30;79.40;96668.36;1671662;84;21378;-84
2021/09/12 05:28:17;;;;;;;5.28;3.95;;;;;;;16.33;79.40;96662.69;1665027;84;21043;-83
2021/09/12 05:30:43;;;;;;;4.50;3.65;;;;;;;16.39;79.67;96659.21;1679382;84;21056;-83
2021/09/12 05:33:09;;;;;;;4.30;3.85;;;;;;;16.43;79.63;96665.64;1677602;84;21016;-83
2021/09/12 05:35:35;;;;;;;4.97;4.00;;;;;;;16.48;79.58;96661.38;1669063;85;20991;-84
2021/09/12 05:38:00;;;;;;;4.75;4.35;;;;;;;16.56;79.58;96659.51;1654868;85;21027;-83
2021/09/12 05:40:26;;;;;;;4.58;4.12;;;;;;;16.62;79.56;96668.66;1692635;84;21014;-84
2021/09/12 05:42:52;;;;;;;5.33;4.83;;;;;;;16.66;79.68;96659.34;1691162;84;21078;-83
2021/09/12 05:45:18;;;;;;;4.90;4.17;;;;;;;16.69;79.79;96662.08;1702901;84;21153;-83
2021/09/12 05:47:44;;;;;;;4.60;4.20;;;;;;;16.75;79.76;96657.27;1683065;84;21134;-84
2021/09/12 05:50:10;;;;;;;4.60;4.17;;;;;;;16.81;79.64;96660.38;1668484;84;21378;-84
2021/09/12 05:52:36;;;;;;;4.65;4.08;;;;;;;16.87;79.63;96659.52;1694117;83;21047;-83
2021/09/12 05:55:04;;;;;;;6.12;4.25;;;;;;;16.94;79.63;96663.41;1709528;83;21014;-83
2021/09/12 05:57:30;;;;;;;4.95;4.45;;;;;;;17.03;79.75;96662.11;1699754;83;21415;-84
2021/09/12 05:59:59;;;;;;;5.53;5.00;;;;;;;17.09;79.52;96666.52;1677307;84;21080;-84
2021/09/12 06:02:25;;;;;;;5.28;4.70;;;;;;;17.14;79.60;96670.60;1652219;85;21029;-83
2021/09/12 06:04:50;;;;;;;5.10;4.60;;;;;;;17.18;79.50;96671.77;1685760;84;21100;-83
2021/09/12 06:07:16;;;;;;;5.37;4.35;;;;;;;17.21;79.51;96669.22;1690793;84;21070;-84
2021/09/12 06:09:42;;;;;;;4.58;4.00;;;;;;;17.27;79.45;96668.37;1691006;84;21095;-83
2021/09/12 06:12:14;;;;;;;5.37;4.87;;;;;;;17.32;79.25;96670.63;1661102;84;21095;-84
2021/09/12 06:14:42;;;;;;;6.40;5.10;;;;;;;17.36;79.29;96671.80;1678416;84;21114;-83
2021/09/12 06:17:11;;;;;;;7.17;5.20;;;;;;;17.40;79.15;96674.27;1687426;84;21036;-84
2021/09/12 06:19:41;;;;;;;5.30;4.78;;;;;;;17.42;78.97;96672.77;1657658;85;21069;-84
2021/09/12 06:22:09;;;;;;;5.03;4.40;;;;;;;17.43;79.01;96675.69;1666123;84;21028;-84
2021/09/12 06:24:37;;;;;;;4.92;4.28;;;;;;;17.47;78.99;96674.22;1664304;84;21061;-84
2021/09/12 06:27:05;;;;;;;6.83;4.33;;;;;;;17.50;78.87;96672.47;1679239;84;21365;-84
2021/09/12 06:29:35;;;;;;;5.22;4.33;;;;;;;17.53;78.64;96674.66;1668163;84;21367;-84
2021/09/12 06:32:17;;;;;;;5.12;4.62;;;;;;;17.57;78.60;96673.22;1695089;84;21086;-84
2021/09/12 06:34:34;;;;;;;7.45;5.33;;;;;;;17.62;78.47;96679.13;1686921;84;21138;-84
2021/09/12 06:37:07;;;;;;;5.03;4.53;;;;;;;17.66;78.52;96675.03;1703701;84;21158;-84
2021/09/12 06:39:35;;;;;;;5.67;4.40;;;;;;;17.71;78.25;96680.45;1679146;84;20986;-84
2021/09/12 06:42:03;;;;;;;5.30;4.28;;;;;;;17.79;78.20;96679.38;1656730;85;21431;-84
2021/09/12 06:44:29;;;;;;;5.05;4.55;;;;;;;17.86;77.94;96684.03;1677177;84;21024;-84
2021/09/12 06:46:55;;;;;;;6.78;5.10;;;;;;;17.92;77.66;96681.34;1662711;85;21067;-84
2021/09/12 06:49:21;;;;;;;5.45;4.95;;;;;;;17.97;77.56;96680.16;1675478;84;21069;-84
2021/09/12 06:51:47;;;;;;;5.97;5.42;;;;;;;18.01;77.77;96677.89;1641453;85;21003;-84
2021/09/12 06:54:13;;;;;;;4.90;4.50;;;;;;;18.09;77.88;96682.86;1678821;84;21045;-84
2021/09/12 06:56:39;;;;;;;5.97;4.60;;;;;;;18.17;78.11;96677.28;1664476;85;21051;-84
2021/09/12 06:59:05;;;;;;;5.97;4.62;;;;;;;18.29;78.07;96686.55;1683742;84;21210;-84
2021/09/12 07:01:30;;;;;;;6.53;5.20;;;;;;;18.36;78.03;96685.93;1678809;84;21066;-84
2021/09/12 07:03:56;;;;;;;5.87;5.22;;;;;;;18.42;77.55;96684.25;1683383;84;21045;-83
2021/09/12 07:06:22;;;;;;;6.47;5.75;;;;;;;18.44;77.36;96680.37;1672440;84;21095;-84
2021/09/12 07:08:49;;;;;;;5.55;4.60;;;;;;;18.47;77.19;96682.55;1695108;84;21406;-84
2021/09/12 07:11:15;;;;;;;5.83;5.22;;;;;;;18.52;77.12;96691.88;1671930;84;21085;-84
2021/09/12 07:13:41;;;;;;;4.70;4.30;;;;;;;18.55;77.30;96694.60;1677495;84;21051;-84
2021/09/12 07:16:12;;;;;;;5.58;5.00;;;;;;;18.55;77.30;96694.60;1681370;84;21035;-84
2021/09/12 07:18:38;;;;;;;6.43;5.53;;;;;;;18.58;77.53;96692.83;1678169;83;21456;-84
2021/09/12 07:21:04;;;;;;;5.70;5.20;;;;;;;18.59;77.65;96697.87;1679347;84;21041;-84
2021/09/12 07:23:34;;;;;;;8.13;5.70;;;;;;;18.58;77.71;96697.58;1664230;85;20974;-84
2021/09/12 07:26:05;;;;;;;7.12;5.00;;;;;;;18.61;77.82;96700.27;1674535;84;21235;-84
2021/09/12 07:28:36;;;;;;;5.45;4.53;;;;;;;18.67;77.98;96698.08;1702561;84;21391;-84
2021/09/12 07:31:03;;;;;;;6.75;6.05;;;;;;;18.78;78.27;96698.63;1684862;84;21089;-84
2021/09/12 07:33:30;;;;;;;5.75;5.25;;;;;;;18.89;77.30;96701.02;1691214;84;21091;-84
2021/09/12 07:36:04;;;;;;;7.70;5.25;;;;;;;19.01;77.72;96701.81;1674001;85;21044;-84
2021/09/12 07:38:32;;;;;;;6.55;5.37;;;;;;;19.12;77.64;96697.59;1665040;85;21044;-84
2021/09/12 07:41:04;;;;;;;6.85;6.15;;;;;;;19.21;77.53;96695.44;1641391;85;21467;-84
2021/09/12 07:43:33;;;;;;;9.73;6.17;;;;;;;19.30;76.49;96699.33;1659477;85;21462;-84
2021/09/12 07:46:03;;;;;;;9.25;6.22;;;;;;;19.38;74.37;96695.84;1689872;84;21382;-84
2021/09/12 07:48:39;;;;;;;8.88;5.87;;;;;;;19.52;74.37;96695.07;1670562;84;21104;-84
2021/09/12 07:51:10;;;;;;;6.95;6.25;;;;;;;19.62;73.70;96697.97;1657758;85;21029;-84
2021/09/12 07:53:38;;;;;;;7.80;6.72;;;;;;;19.69;73.78;96696.03;1656993;84;21114;-84
2021/09/12 07:56:06;;;;;;;7.35;6.60;;;;;;;19.75;74.09;96699.05;1681000;84;21055;-84
2021/09/12 07:58:35;;;;;;;7.60;6.72;;;;;;;19.78;72.71;96697.26;1666187;84;21059;-84
2021/09/12 08:01:05;;;;;;;11.33;10.23;;;;;;;19.87;72.89;96696.41;1679893;85;21135;-84
2021/09/12 08:03:30;;;;;;;9.28;8.30;;;;;;;19.95;72.01;96700.50;1679618;84;21108;-84
2021/09/12 08:05:58;;;;;;;9.10;8.30;;;;;;;20.01;71.39;96695.59;1695779;83;21101;-84
2021/09/12 08:08:26;;;;;;;8.83;7.92;;;;;;;20.05;71.87;96704.15;1708422;83;21016;-84
2021/09/12 08:11:04;;;;;;;7.97;6.85;;;;;;;20.05;70.60;96700.20;1688075;83;21046;-84
2021/09/12 08:13:35;;;;;;;11.40;7.95;;;;;;;20.07;70.98;96703.39;1694551;83;21087;-84
2021/09/12 08:16:03;;;;;;;11.38;8.75;;;;;;;20.14;70.47;96703.25;1703159;83;21011;-84
2021/09/12 08:18:35;;;;;;;8.13;6.58;;;;;;;20.16;69.71;96708.29;1679602;84;21097;-84
2021/09/12 08:21:08;;;;;;;10.93;7.53;;;;;;;20.15;70.86;96704.85;1677303;84;21064;-84
2021/09/12 08:23:37;;;;;;;7.15;6.45;;;;;;;20.12;68.50;96719.03;1690032;84;21027;-84
2021/09/12 08:26:05;;;;;;;7.65;6.85;;;;;;;20.12;68.33;96721.16;1696184;84;21400;-84
2021/09/12 08:28:32;;;;;;;7.95;7.12;;;;;;;20.20;68.38;96720.80;1669574;84;21017;-84
2021/09/12 08:31:02;;;;;;;7.70;6.90;;;;;;;20.29;67.88;96723.86;1673691;84;21042;-84
2021/09/12 08:33:31;;;;;;;12.28;7.30;;;;;;;20.37;67.21;96717.70;1674567;84;21042;-84
2021/09/12 08:35:58;;;;;;;8.05;6.53;;;;;;;20.46;67.11;96718.66;1657002;85;21050;-84
2021/09/12 08:38:29;;;;;;;8.63;7.72;;;;;;;20.52;66.13;96715.09;1672872;84;21074;-84
2021/09/12 08:41:06;;;;;;;9.23;7.37;;;;;;;20.56;65.91;96718.86;1665745;84;21126;-84
2021/09/12 08:43:30;;;;;;;7.95;7.20;;;;;;;20.58;66.14;96712.82;1648191;84;21089;-84
2021/09/12 08:45:58;;;;;;;8.80;7.80;;;;;;;20.62;66.60;96720.02;1679525;84;21011;-84
2021/09/12 08:48:25;;;;;;;8.48;7.30;;;;;;;20.64;66.54;96726.38;1648008;85;21388;-84
2021/09/12 08:50:52;;;;;;;7.85;7.15;;;;;;;20.64;65.82;96721.10;1707240;83;21195;-84
2021/09/12 08:53:20;;;;;;;8.63;7.50;;;;;;;20.61;66.60;96720.27;1676714;84;21445;-84
2021/09/12 08:55:48;;;;;;;8.93;7.97;;;;;;;20.61;66.43;96722.91;1699634;84;21099;-84
2021/09/12 08:58:15;;;;;;;10.32;9.23;;;;;;;20.65;65.82;96718.22;1681670;84;21059;-84
2021/09/12 09:00:44;;;;;;;7.83;6.22;;;;;;;20.68;66.35;96719.61;1680506;84;21046;-84
2021/09/12 09:03:14;;;;;;;8.53;7.72;;;;;;;20.74;66.78;96717.34;1695950;84;21441;-84
2021/09/12 09:05:43;;;;;;;7.75;7.05;;;;;;;20.84;67.08;96718.05;1690413;84;21096;-84
2021/09/12 09:08:14;;;;;;;7.22;6.20;;;;;;;20.92;65.74;96716.31;1693031;84;21028;-84
2021/09/12 09:10:49;;;;;;;9.13;8.10;;;;;;;21.02;66.02;96720.45;1682669;84;21083;-84
2021/09/12 09:13:35;;;;;;;8.63;7.85;;;;;;;21.10;65.91;96717.92;1685158;84;21378;-84
2021/09/12 09:16:05;;;;;;;8.20;7.40;;;;;;;21.14;64.94;96721.16;1679370;84;21097;-84
2021/09/12 09:18:39;;;;;;;8.10;7.30;;;;;;;21.17;65.31;96715.94;1678607;84;21410;-84
2021/09/12 09:21:33;;;;;;;8.78;7.87;;;;;;;21.26;65.03;96712.67;1679085;84;21052;-84
2021/09/12 09:24:26;;;;;;;7.75;7.05;;;;;;;21.38;65.25;96709.95;1688169;84;21051;-84
2021/09/12 09:26:56;;;;;;;8.25;7.47;;;;;;;21.49;65.13;96702.98;1685215;84;21414;-84
2021/09/12 09:29:32;;;;;;;8.25;7.37;;;;;;;21.55;64.99;96706.76;1688363;84;21112;-84
2021/09/12 09:32:13;;;;;;;8.15;7.30;;;;;;;21.64;64.78;96706.33;1700981;83;21378;-85
2021/09/12 09:34:41;;;;;;;9.05;8.13;;;;;;;21.74;65.06;96703.83;1707852;83;21080;-84
2021/09/12 09:37:20;;;;;;;9.20;8.30;;;;;;;21.92;65.32;96700.89;1679529;84;21378;-84
2021/09/12 09:39:54;;;;;;;8.50;7.58;;;;;;;21.99;64.89;96702.84;1690476;84;21034;-84
2021/09/12 09:42:44;;;;;;;8.93;8.03;;;;;;;21.99;64.81;96704.17;1699637;84;21465;-84
2021/09/12 09:45:16;;;;;;;8.63;7.83;;;;;;;21.98;65.32;96697.80;1714188;83;21603;-84
2021/09/12 09:47:49;;;;;;;10.25;7.95;;;;;;;21.93;65.14;96698.52;1711641;83;21003;-84
2021/09/12 09:50:18;;;;;;;8.85;8.05;;;;;;;21.99;65.49;96701.52;1682089;84;21402;-84
2021/09/12 09:52:47;;;;;;;9.73;8.83;;;;;;;22.08;65.78;96705.88;1689673;83;21037;-84
2021/09/12 09:55:15;;;;;;;11.50;9.75;;;;;;;22.19;65.98;96704.16;1693159;83;21178;-84
2021/09/12 09:57:44;;;;;;;9.65;8.65;;;;;;;22.28;65.30;96706.63;1682744;84;21456;-84
2021/09/12 10:00:10;;;;;;;9.48;8.65;;;;;;;22.38;65.21;96704.11;1698997;83;21099;-84
2021/09/12 10:02:36;;;;;;;9.55;7.70;;;;;;;22.40;64.74;96699.36;1666319;84;21141;-84
2021/09/12 10:05:04;;;;;;;9.48;8.68;;;;;;;22.44;65.07;96697.81;1634833;84;21094;-84
2021/09/12 10:07:30;;;;;;;14.45;12.98;;;;;;;22.45;66.07;96688.31;1686548;84;21079;-85
2021/09/12 10:09:57;;;;;;;10.18;9.28;;;;;;;22.53;64.74;96698.97;1689449;84;21101;-84
2021/09/12 10:12:22;;;;;;;10.45;9.45;;;;;;;22.50;64.08;96698.68;1692646;84;21035;-84
2021/09/12 10:14:57;;;;;;;9.15;8.25;;;;;;;22.51;63.73;96701.08;1663660;84;21538;-84
2021/09/12 10:17:30;;;;;;;16.52;14.93;;;;;;;22.51;63.70;96697.10;1686017;84;21100;-84
2021/09/12 10:20:17;;;;;;;8.20;7.28;;;;;;;22.51;64.40;96690.48;1670182;84;21060;-84
2021/09/12 10:23:01;;;;;;;8.03;7.10;;;;;;;22.56;64.44;96692.37;1708553;83;20990;-84
2021/09/12 10:25:28;;;;;;;7.78;7.08;;;;;;;22.46;62.41;96692.56;1718367;83;20972;-85
2021/09/12 10:28:07;;;;;;;7.92;7.12;;;;;;;22.56;63.27;96689.72;1726111;83;21044;-85
2021/09/12 10:30:42;;;;;;;7.20;6.50;;;;;;;22.67;63.33;96687.45;1689682;82;20998;-84
2021/09/12 10:33:21;;;;;;;6.40;5.80;;;;;;;22.80;62.62;96688.91;1697115;83;21448;-84
2021/09/12 10:35:53;;;;;;;6.30;5.80;;;;;;;22.88;62.53;96687.14;1658803;84;21404;-85
2021/09/12 10:38:39;;;;;;;6.78;6.15;;;;;;;22.85;62.06;96687.65;1693613;83;21036;-84
2021/09/12 10:41:09;;;;;;;7.97;6.87;;;;;;;22.85;62.49;96684.47;1692445;84;21002;-84
2021/09/12 10:43:41;;;;;;;6.53;5.95;;;;;;;22.86;62.83;96682.62;1685488;84;21400;-84
2021/09/12 10:46:13;;;;;;;7.17;6.47;;;;;;;22.80;62.65;96679.63;1699272;83;21088;-84
2021/09/12 10:48:46;;;;;;;7.60;6.72;;;;;;;22.81;62.42;96674.61;1701526;83;21434;-84
2021/09/12 10:51:20;;;;;;;7.35;6.65;;;;;;;22.82;61.55;96681.50;1680996;84;21103;-84
2021/09/12 10:54:00;;;;;;;6.67;5.97;;;;;;;22.77;62.16;96684.88;1677283;83;21445;-85
2021/09/12 10:56:29;;;;;;;6.72;6.12;;;;;;;22.72;62.67;96682.20;1688431;84;21079;-85
2021/09/12 10:59:09;;;;;;;6.90;6.20;;;;;;;22.53;61.96;96679.11;1681175;84;21071;-84
2021/09/12 11:01:45;;;;;;;6.60;6.00;;;;;;;22.45;62.28;96676.41;1666779;84;21468;-84
2021/09/12 11:04:13;;;;;;;7.75;5.67;;;;;;;22.37;63.38;96669.42;1671081;84;21026;-85
2021/09/12 11:06:44;;;;;;;6.30;5.20;;;;;;;22.34;64.30;96674.69;1674864;84;21119;-84
2021/09/12 11:09:23;;;;;;;5.37;4.87;;;;;;;22.41;63.76;96669.19;1687237;84;21368;-84
2021/09/12 11:11:55;;;;;;;6.58;5.97;;;;;;;22.50;62.97;96667.70;1694391;83;21443;-85
2021/09/12 11:14:21;;;;;;;6.50;5.90;;;;;;;22.58;62.00;96661.94;1713757;83;21111;-84
2021/09/12 11:16:47;;;;;;;6.25;5.55;;;;;;;22.53;62.19;96663.75;1719118;83;20998;-85
2021/09/12 11:19:13;;;;;;;6.72;5.97;;;;;;;22.52;62.25;96661.63;1697249;83;21345;-84
2021/09/12 11:21:47;;;;;;;5.80;5.25;;;;;;;22.51;62.35;96658.70;1708021;83;21015;-85
2021/09/12 11:24:17;;;;;;;6.62;5.92;;;;;;;22.55;63.18;96662.45;1665372;85;21005;-84
2021/09/12 11:26:59;;;;;;;5.78;5.28;;;;;;;22.53;61.69;96661.10;1676713;84;21028;-85
2021/09/12 11:29:32;;;;;;;6.30;5.70;;;;;;;22.53;62.19;96655.80;1715756;83;21051;-84
2021/09/12 11:32:07;;;;;;;5.92;5.28;;;;;;;22.52;63.47;96656.86;1668533;84;21115;-84
2021/09/12 11:34:34;;;;;;;6.20;5.30;;;;;;;22.56;63.73;96652.66;1657777;85;21118;-85
2021/09/12 11:37:05;;;;;;;7.17;6.12;;;;;;;22.59;62.26;96646.33;1643304;86;21040;-85
2021/09/12 11:39:42;;;;;;;8.00;5.80;;;;;;;22.64;61.80;96639.77;1677117;84;21140;-84